Time;durP1;ratioP1;P1;durP2;ratioP2;P2;SDS_P1;SDS_P2;PMS_P1;PMS_P2;Temp;Humidity;BMP_temperature;BMP_pressure;BME280_temperature;BME280_humidity;BME280_pressure;Samples;Min_cycle;Max_cycle;Signal;HPM_P1;HPM_P2
2023/08/11 00:00:50;;;;;;;6.40;4.18;;;;;;;;;;4919578;29;20051;-79
2023/08/11 00:03:16;;;;;;;9.88;4.30;;;;;;;;;;4919954;29;20079;-78
2023/08/11 00:05:42;;;;;;;5.75;4.03;;;;;;;;;;4919608;29;20036;-78
2023/08/11 00:08:08;;;;;;;7.25;4.00;;;;;;;;;;4919939;29;20032;-78
2023/08/11 00:10:34;;;;;;;7.30;4.00;;;;;;;;;;4919087;29;20028;-78
2023/08/11 00:13:00;;;;;;;6.82;4.03;;;;;;;;;;4918999;29;20039;-78
2023/08/11 00:15:26;;;;;;;9.68;4.30;;;;;;;;;;4919650;29;20028;-78
2023/08/11 00:18:00;;;;;;;6.82;3.80;;;;;;;;;;4919511;29;20066;-78
2023/08/11 00:20:29;;;;;;;6.70;4.13;;;;;;;;;;4919389;29;20020;-78
2023/08/11 00:22:55;;;;;;;5.65;3.88;;;;;;;;;;4919348;29;20028;-77
2023/08/11 00:25:22;;;;;;;7.13;3.70;;;;;;;;;;4919505;29;20072;-78
2023/08/11 00:27:47;;;;;;;9.60;3.90;;;;;;;;;;4919270;29;20020;-77
2023/08/11 00:30:13;;;;;;;8.07;3.85;;;;;;;;;;4916836;29;20631;-77
2023/08/11 00:32:38;;;;;;;7.32;3.90;;;;;;;;;;4917642;29;20547;-77
2023/08/11 00:35:04;;;;;;;6.32;4.10;;;;;;;;;;4919170;29;20047;-78
2023/08/11 00:37:29;;;;;;;6.10;3.90;;;;;;;;;;4915734;29;20020;-78
2023/08/11 00:39:55;;;;;;;6.80;4.10;;;;;;;;;;4926200;29;20028;-77
2023/08/11 00:42:20;;;;;;;5.65;3.83;;;;;;;;;;4918657;29;20043;-78
2023/08/11 00:44:46;;;;;;;6.35;4.10;;;;;;;;;;4916085;29;20025;-78
2023/08/11 00:47:11;;;;;;;7.38;3.95;;;;;;;;;;4915993;29;20079;-78
2023/08/11 00:49:37;;;;;;;10.00;4.05;;;;;;;;;;4915947;29;20032;-78
2023/08/11 00:52:03;;;;;;;8.43;4.00;;;;;;;;;;4915811;29;20111;-77
2023/08/11 00:54:30;;;;;;;10.40;4.38;;;;;;;;;;4916136;29;20477;-78
2023/08/11 00:56:56;;;;;;;5.60;3.90;;;;;;;;;;4915742;29;20055;-78
2023/08/11 00:59:22;;;;;;;5.95;4.03;;;;;;;;;;4916034;29;20031;-78
2023/08/11 01:01:47;;;;;;;8.90;4.10;;;;;;;;;;4916045;29;20376;-78
2023/08/11 01:04:13;;;;;;;6.45;4.10;;;;;;;;;;4916266;29;20161;-78
2023/08/11 01:06:58;;;;;;;6.50;3.72;;;;;;;;;;4915680;29;20110;-78
2023/08/11 01:10:06;;;;;;;6.60;3.90;;;;;;;;;;4915859;29;20031;-78
2023/08/11 01:12:40;;;;;;;5.35;3.83;;;;;;;;;;4913122;29;20075;-78
2023/08/11 01:15:20;;;;;;;6.20;3.83;;;;;;;;;;4912728;29;20036;-78
2023/08/11 01:17:48;;;;;;;5.40;4.00;;;;;;;;;;4904483;29;20033;-78
2023/08/11 01:20:16;;;;;;;6.13;3.95;;;;;;;;;;4915952;29;20062;-78
2023/08/11 01:22:44;;;;;;;6.50;4.10;;;;;;;;;;4915600;29;20032;-78
2023/08/11 01:25:10;;;;;;;6.82;4.03;;;;;;;;;;4915660;29;20024;-77
2023/08/11 01:27:43;;;;;;;6.60;4.28;;;;;;;;;;4915330;29;20107;-78
2023/08/11 01:30:10;;;;;;;6.43;3.80;;;;;;;;;;4914893;29;20024;-78
2023/08/11 01:32:35;;;;;;;6.15;4.00;;;;;;;;;;4915254;29;20472;-78
2023/08/11 01:35:03;;;;;;;7.85;4.10;;;;;;;;;;4915536;29;20066;-78
2023/08/11 01:37:30;;;;;;;7.43;3.90;;;;;;;;;;4915125;29;20190;-77
2023/08/11 01:39:55;;;;;;;6.57;4.10;;;;;;;;;;4915495;29;20035;-77
2023/08/11 01:42:21;;;;;;;7.18;4.00;;;;;;;;;;4915369;29;20024;-78
2023/08/11 01:44:47;;;;;;;5.63;3.75;;;;;;;;;;4915129;29;20028;-78
2023/08/11 01:47:12;;;;;;;6.70;4.10;;;;;;;;;;4914685;29;20055;-78
2023/08/11 01:49:38;;;;;;;7.63;4.07;;;;;;;;;;4914316;29;20233;-79
2023/08/11 01:52:04;;;;;;;6.72;4.05;;;;;;;;;;4914935;29;20079;-77
2023/08/11 01:54:29;;;;;;;6.70;4.00;;;;;;;;;;4915325;29;20055;-78
2023/08/11 01:56:55;;;;;;;6.63;4.20;;;;;;;;;;4914744;29;20408;-77
2023/08/11 01:59:20;;;;;;;6.68;3.90;;;;;;;;;;4915041;29;20392;-78
2023/08/11 02:01:46;;;;;;;5.75;4.13;;;;;;;;;;4914895;29;20016;-77
2023/08/11 02:04:12;;;;;;;5.53;3.65;;;;;;;;;;4915200;29;20361;-77
2023/08/11 02:06:39;;;;;;;6.38;3.75;;;;;;;;;;4914803;29;20024;-77
2023/08/11 02:09:08;;;;;;;7.22;3.85;;;;;;;;;;4914496;29;20032;-77
2023/08/11 02:11:35;;;;;;;8.25;3.83;;;;;;;;;;4914469;29;20020;-77
2023/08/11 02:14:00;;;;;;;5.90;3.42;;;;;;;;;;4914494;29;20064;-77
2023/08/11 02:16:26;;;;;;;6.40;4.03;;;;;;;;;;4914710;29;20145;-76
2023/08/11 02:18:51;;;;;;;6.43;3.53;;;;;;;;;;4914965;29;20032;-78
2023/08/11 02:21:16;;;;;;;7.60;3.90;;;;;;;;;;4914455;29;20388;-77
2023/08/11 02:23:42;;;;;;;6.78;3.63;;;;;;;;;;4914793;29;20119;-78
2023/08/11 02:26:07;;;;;;;6.18;3.80;;;;;;;;;;4914247;29;20413;-78
2023/08/11 02:28:33;;;;;;;5.50;3.67;;;;;;;;;;4914482;29;20546;-77
2023/08/11 02:30:58;;;;;;;6.40;3.75;;;;;;;;;;4913969;29;20035;-78
2023/08/11 02:33:23;;;;;;;6.35;3.50;;;;;;;;;;4914443;29;20044;-77
2023/08/11 02:35:49;;;;;;;7.32;3.60;;;;;;;;;;4914213;29;20112;-76
2023/08/11 02:38:14;;;;;;;4.75;3.67;;;;;;;;;;4913204;29;20099;-76
2023/08/11 02:40:39;;;;;;;5.45;3.40;;;;;;;;;;4914024;29;20036;-77
2023/08/11 02:43:07;;;;;;;7.85;3.88;;;;;;;;;;4914534;29;20510;-78
2023/08/11 02:45:32;;;;;;;6.75;3.95;;;;;;;;;;4914098;29;20184;-78
2023/08/11 02:47:58;;;;;;;6.53;3.53;;;;;;;;;;4914262;29;20304;-77
2023/08/11 02:50:23;;;;;;;5.10;3.70;;;;;;;;;;4913804;29;20030;-78
2023/08/11 02:52:48;;;;;;;5.28;3.58;;;;;;;;;;4914005;29;20028;-77
2023/08/11 02:55:14;;;;;;;5.28;3.85;;;;;;;;;;4914203;29;20024;-77
2023/08/11 02:57:40;;;;;;;4.82;3.42;;;;;;;;;;4913799;29;20141;-78
2023/08/11 03:00:12;;;;;;;4.90;3.42;;;;;;;;;;4926138;29;20029;-76
2023/08/11 03:02:37;;;;;;;5.97;3.80;;;;;;;;;;4913950;29;20064;-77
2023/08/11 03:05:03;;;;;;;7.10;3.80;;;;;;;;;;4913801;29;20024;-78
2023/08/11 03:07:31;;;;;;;5.03;3.55;;;;;;;;;;4912472;29;20105;-78
2023/08/11 03:09:56;;;;;;;8.40;4.10;;;;;;;;;;4914099;29;20536;-77
2023/08/11 03:12:22;;;;;;;6.00;3.72;;;;;;;;;;4913550;29;20040;-78
2023/08/11 03:14:47;;;;;;;7.80;3.80;;;;;;;;;;4913539;29;20032;-77
2023/08/11 03:17:13;;;;;;;9.20;3.92;;;;;;;;;;4916139;29;20047;-78
2023/08/11 03:19:38;;;;;;;5.35;3.60;;;;;;;;;;4936363;29;20040;-78
2023/08/11 03:22:04;;;;;;;6.57;3.75;;;;;;;;;;4923100;29;20028;-78
2023/08/11 03:24:29;;;;;;;5.30;3.80;;;;;;;;;;4924698;29;20020;-75
2023/08/11 03:26:55;;;;;;;8.98;4.07;;;;;;;;;;4919472;29;20250;-78
2023/08/11 03:29:20;;;;;;;5.70;3.70;;;;;;;;;;4924132;29;20051;-77
2023/08/11 03:31:46;;;;;;;6.85;3.83;;;;;;;;;;4922677;29;20257;-77
2023/08/11 03:34:11;;;;;;;5.93;4.07;;;;;;;;;;4913563;29;20096;-77
2023/08/11 03:36:36;;;;;;;8.15;3.75;;;;;;;;;;4914089;29;20178;-76
2023/08/11 03:39:02;;;;;;;6.32;3.58;;;;;;;;;;4913826;29;20056;-77
2023/08/11 03:41:27;;;;;;;6.45;3.60;;;;;;;;;;4912128;29;20028;-77
2023/08/11 03:43:52;;;;;;;5.75;3.78;;;;;;;;;;4913244;29;20477;-78
2023/08/11 03:46:18;;;;;;;5.40;3.67;;;;;;;;;;4913567;29;20024;-78
2023/08/11 03:48:43;;;;;;;7.57;3.70;;;;;;;;;;4913835;29;20449;-78
2023/08/11 03:51:09;;;;;;;8.30;3.83;;;;;;;;;;4913084;29;20090;-77
2023/08/11 03:53:36;;;;;;;7.57;3.88;;;;;;;;;;4913779;29;20036;-78
2023/08/11 03:56:01;;;;;;;6.60;3.60;;;;;;;;;;4913429;29;20111;-77
2023/08/11 03:58:27;;;;;;;8.23;3.83;;;;;;;;;;4913105;29;20119;-78
2023/08/11 04:00:53;;;;;;;6.05;3.67;;;;;;;;;;4913442;29;20043;-77
2023/08/11 04:03:19;;;;;;;7.05;3.67;;;;;;;;;;4913254;29;20032;-77
2023/08/11 04:05:44;;;;;;;7.22;3.85;;;;;;;;;;4913179;29;20032;-78
2023/08/11 04:08:09;;;;;;;4.60;3.70;;;;;;;;;;4913387;29;20271;-77
2023/08/11 04:10:35;;;;;;;6.95;3.70;;;;;;;;;;4913149;29;20076;-77
2023/08/11 04:13:01;;;;;;;5.22;3.70;;;;;;;;;;4915962;29;20112;-78
2023/08/11 04:15:26;;;;;;;7.72;3.70;;;;;;;;;;4917116;29;20047;-78
2023/08/11 04:17:52;;;;;;;6.43;3.60;;;;;;;;;;4917027;29;20485;-78
2023/08/11 04:20:17;;;;;;;5.68;3.90;;;;;;;;;;4916447;29;20031;-77
2023/08/11 04:22:43;;;;;;;5.25;3.53;;;;;;;;;;4916658;29;20040;-78
2023/08/11 04:25:10;;;;;;;9.68;3.70;;;;;;;;;;4916786;29;20497;-78
2023/08/11 04:27:37;;;;;;;7.07;3.90;;;;;;;;;;4916172;29;20080;-77
2023/08/11 04:30:04;;;;;;;8.32;3.60;;;;;;;;;;4916681;29;20021;-77
2023/08/11 04:32:29;;;;;;;6.55;4.03;;;;;;;;;;4916409;29;20046;-78
2023/08/11 04:34:54;;;;;;;7.20;3.75;;;;;;;;;;4916490;29;20480;-77
2023/08/11 04:37:20;;;;;;;6.78;3.80;;;;;;;;;;4916444;29;20076;-78
2023/08/11 04:39:45;;;;;;;6.00;4.00;;;;;;;;;;4916529;29;20020;-77
2023/08/11 04:42:12;;;;;;;5.72;3.60;;;;;;;;;;4916079;29;20039;-77
2023/08/11 04:44:37;;;;;;;5.63;3.60;;;;;;;;;;4915024;29;20028;-78
2023/08/11 04:47:03;;;;;;;9.73;3.70;;;;;;;;;;4916131;29;20035;-77
2023/08/11 04:49:29;;;;;;;8.38;4.00;;;;;;;;;;4916100;29;20040;-77
2023/08/11 04:51:54;;;;;;;10.38;4.35;;;;;;;;;;4916065;29;20028;-78
2023/08/11 04:54:19;;;;;;;10.40;4.70;;;;;;;;;;4916723;29;20176;-78
2023/08/11 04:56:46;;;;;;;9.55;5.00;;;;;;;;;;4916422;29;20056;-78
2023/08/11 04:59:12;;;;;;;8.00;4.38;;;;;;;;;;4915594;29;20016;-77
2023/08/11 05:01:37;;;;;;;8.88;4.35;;;;;;;;;;4915718;29;20032;-77
2023/08/11 05:04:04;;;;;;;9.18;4.57;;;;;;;;;;4915922;29;20087;-78
2023/08/11 05:06:29;;;;;;;10.35;5.10;;;;;;;;;;4915890;29;20036;-77
2023/08/11 05:08:55;;;;;;;9.85;4.25;;;;;;;;;;4914724;29;20020;-77
2023/08/11 05:11:20;;;;;;;12.80;4.20;;;;;;;;;;4914785;29;20577;-78
2023/08/11 05:13:45;;;;;;;9.27;4.32;;;;;;;;;;4916035;29;20609;-77
2023/08/11 05:16:11;;;;;;;12.77;4.35;;;;;;;;;;4915527;29;20115;-78
2023/08/11 05:18:36;;;;;;;13.07;4.57;;;;;;;;;;4915872;29;20044;-77
2023/08/11 05:21:05;;;;;;;10.65;4.60;;;;;;;;;;4915387;29;20172;-78
2023/08/11 05:23:31;;;;;;;12.15;4.90;;;;;;;;;;4915369;29;20029;-77
2023/08/11 05:25:56;;;;;;;13.00;4.72;;;;;;;;;;4915373;29;20035;-77
2023/08/11 05:28:22;;;;;;;10.15;4.60;;;;;;;;;;4915856;29;20082;-77
2023/08/11 05:30:48;;;;;;;7.88;4.82;;;;;;;;;;4915089;29;20040;-77
2023/08/11 05:33:13;;;;;;;14.35;4.93;;;;;;;;;;4915519;29;20032;-77
2023/08/11 05:35:39;;;;;;;8.70;4.50;;;;;;;;;;4915503;29;20397;-77
2023/08/11 05:38:05;;;;;;;14.40;5.70;;;;;;;;;;4915424;29;20074;-76
2023/08/11 05:40:30;;;;;;;11.10;5.35;;;;;;;;;;4915206;29;20028;-77
2023/08/11 05:42:56;;;;;;;19.20;5.60;;;;;;;;;;4915485;29;20032;-78
2023/08/11 05:45:21;;;;;;;12.60;4.85;;;;;;;;;;4914779;29;20067;-77
2023/08/11 05:47:46;;;;;;;16.63;4.93;;;;;;;;;;4915147;29;20127;-77
2023/08/11 05:50:12;;;;;;;21.23;4.80;;;;;;;;;;4914882;29;20055;-77
2023/08/11 05:52:37;;;;;;;14.73;4.90;;;;;;;;;;4915367;29;20067;-77
2023/08/11 05:55:03;;;;;;;17.05;4.95;;;;;;;;;;4915184;29;20477;-76
2023/08/11 05:57:28;;;;;;;16.83;5.18;;;;;;;;;;4914711;29;20023;-76
2023/08/11 05:59:53;;;;;;;11.20;4.38;;;;;;;;;;4914199;29;20028;-76
2023/08/11 06:02:19;;;;;;;9.75;4.85;;;;;;;;;;4914504;29;20063;-76
2023/08/11 06:04:45;;;;;;;12.05;4.70;;;;;;;;;;4915012;29;20117;-77
2023/08/11 06:07:11;;;;;;;7.00;4.18;;;;;;;;;;4915005;29;20107;-76
2023/08/11 06:09:36;;;;;;;8.27;4.28;;;;;;;;;;4914803;29;20473;-76
2023/08/11 06:12:01;;;;;;;7.53;3.97;;;;;;;;;;4914941;29;20020;-75
2023/08/11 06:14:27;;;;;;;8.85;4.10;;;;;;;;;;4914818;29;20036;-77
2023/08/11 06:16:52;;;;;;;7.80;3.80;;;;;;;;;;4912583;29;20035;-77
2023/08/11 06:19:17;;;;;;;5.93;3.58;;;;;;;;;;4911716;29;20684;-77
2023/08/11 06:21:45;;;;;;;7.53;3.80;;;;;;;;;;4914802;29;20083;-77
2023/08/11 06:24:10;;;;;;;8.75;3.42;;;;;;;;;;4913948;29;20028;-77
2023/08/11 06:26:36;;;;;;;6.25;3.53;;;;;;;;;;4906072;29;20032;-77
2023/08/11 06:29:03;;;;;;;7.15;3.60;;;;;;;;;;4909367;29;20339;-77
2023/08/11 06:31:30;;;;;;;7.13;3.42;;;;;;;;;;4914193;29;20051;-76
2023/08/11 06:33:55;;;;;;;6.30;3.50;;;;;;;;;;4913658;29;20110;-77
2023/08/11 06:36:20;;;;;;;6.07;3.30;;;;;;;;;;4914255;29;20032;-76
2023/08/11 06:38:46;;;;;;;9.52;3.50;;;;;;;;;;4914356;29;20039;-76
2023/08/11 06:41:11;;;;;;;7.00;3.15;;;;;;;;;;4914162;29;20031;-76
2023/08/11 06:43:38;;;;;;;8.45;3.70;;;;;;;;;;4914315;29;20047;-77
2023/08/11 06:46:04;;;;;;;7.25;3.58;;;;;;;;;;4913908;29;20087;-77
2023/08/11 06:48:29;;;;;;;6.30;3.40;;;;;;;;;;4914293;29;20468;-76
2023/08/11 06:50:56;;;;;;;8.82;3.45;;;;;;;;;;4914324;29;20024;-77
2023/08/11 06:53:21;;;;;;;7.65;3.45;;;;;;;;;;4914236;29;20087;-76
2023/08/11 06:55:47;;;;;;;8.05;3.42;;;;;;;;;;4914026;29;20488;-78
2023/08/11 06:58:12;;;;;;;7.93;3.65;;;;;;;;;;4913999;29;20027;-75
2023/08/11 07:00:37;;;;;;;11.98;3.75;;;;;;;;;;4913332;29;20757;-75
2023/08/11 07:03:04;;;;;;;7.95;3.42;;;;;;;;;;4914245;29;20099;-76
2023/08/11 07:05:29;;;;;;;9.95;3.30;;;;;;;;;;4912743;29;20054;-75
2023/08/11 07:07:54;;;;;;;5.55;3.30;;;;;;;;;;4914111;29;20469;-77
2023/08/11 07:10:20;;;;;;;7.28;3.35;;;;;;;;;;4913897;29;20123;-77
2023/08/11 07:12:45;;;;;;;8.20;3.60;;;;;;;;;;4913931;29;20062;-77
2023/08/11 07:15:10;;;;;;;6.55;3.50;;;;;;;;;;4913452;29;20059;-77
2023/08/11 07:17:36;;;;;;;7.20;3.47;;;;;;;;;;4913967;29;20031;-77
2023/08/11 07:20:01;;;;;;;6.43;3.30;;;;;;;;;;4913684;29;20024;-77
2023/08/11 07:22:27;;;;;;;8.48;3.42;;;;;;;;;;4913816;29;20392;-76
2023/08/11 07:24:53;;;;;;;9.95;3.58;;;;;;;;;;4913755;29;20035;-76
2023/08/11 07:27:18;;;;;;;8.10;3.88;;;;;;;;;;4912710;29;20121;-76
2023/08/11 07:29:43;;;;;;;8.15;3.88;;;;;;;;;;4913250;29;20451;-76
2023/08/11 07:32:09;;;;;;;8.63;3.83;;;;;;;;;;4912357;29;20455;-76
2023/08/11 07:34:36;;;;;;;9.38;3.85;;;;;;;;;;4918389;29;20523;-76
2023/08/11 07:37:03;;;;;;;7.43;4.03;;;;;;;;;;4913768;29;20055;-77
2023/08/11 07:39:28;;;;;;;7.82;3.78;;;;;;;;;;4913507;29;20488;-76
2023/08/11 07:41:53;;;;;;;9.82;4.25;;;;;;;;;;4913575;29;20035;-76
2023/08/11 07:44:19;;;;;;;7.50;3.90;;;;;;;;;;4913234;29;20024;-77
2023/08/11 07:46:44;;;;;;;10.05;3.72;;;;;;;;;;4916664;29;20028;-77
2023/08/11 07:49:09;;;;;;;11.07;3.95;;;;;;;;;;4917279;29;20067;-76
2023/08/11 07:51:35;;;;;;;8.00;4.05;;;;;;;;;;4917447;29;20075;-76
2023/08/11 07:54:00;;;;;;;7.57;3.97;;;;;;;;;;4917221;29;20122;-76
2023/08/11 07:56:25;;;;;;;7.53;4.05;;;;;;;;;;4917341;29;20028;-77
2023/08/11 07:58:52;;;;;;;7.50;3.88;;;;;;;;;;4915740;29;20369;-80
2023/08/11 08:01:18;;;;;;;9.00;3.80;;;;;;;;;;4916798;29;20059;-78
2023/08/11 08:03:44;;;;;;;9.05;3.90;;;;;;;;;;4917410;29;20070;-77
2023/08/11 08:06:09;;;;;;;8.23;3.75;;;;;;;;;;4917225;29;20035;-78
2023/08/11 08:08:35;;;;;;;9.00;3.97;;;;;;;;;;4917053;29;20074;-77
2023/08/11 08:11:01;;;;;;;7.43;3.92;;;;;;;;;;4916945;29;20028;-77
2023/08/11 08:13:27;;;;;;;7.00;3.97;;;;;;;;;;4916721;29;20044;-77
2023/08/11 08:15:52;;;;;;;8.35;3.80;;;;;;;;;;4916541;29;20032;-76
2023/08/11 08:18:19;;;;;;;9.63;3.65;;;;;;;;;;4915711;29;20138;-77
2023/08/11 08:20:44;;;;;;;7.72;3.78;;;;;;;;;;4918328;29;20031;-77
2023/08/11 08:23:10;;;;;;;7.75;3.90;;;;;;;;;;4926851;29;20024;-76
2023/08/11 08:25:35;;;;;;;7.95;4.10;;;;;;;;;;4927702;29;20064;-76
2023/08/11 08:28:01;;;;;;;10.48;4.07;;;;;;;;;;4927634;29;20031;-76
2023/08/11 08:30:26;;;;;;;11.68;3.65;;;;;;;;;;4927272;29;20035;-76
2023/08/11 08:32:51;;;;;;;8.63;4.13;;;;;;;;;;4926036;29;20152;-77
2023/08/11 08:35:17;;;;;;;6.35;3.83;;;;;;;;;;4926031;29;20043;-76
2023/08/11 08:37:42;;;;;;;9.15;3.90;;;;;;;;;;4927341;29;20016;-77
2023/08/11 08:40:08;;;;;;;9.45;4.40;;;;;;;;;;4927361;29;20052;-76
2023/08/11 08:42:34;;;;;;;8.70;3.92;;;;;;;;;;4927037;29;20044;-77
2023/08/11 08:45:00;;;;;;;6.43;3.92;;;;;;;;;;4925975;29;20419;-76
2023/08/11 08:47:26;;;;;;;7.90;4.10;;;;;;;;;;4925683;29;20296;-77
2023/08/11 08:49:52;;;;;;;7.30;3.70;;;;;;;;;;4927303;29;20332;-77
2023/08/11 08:52:18;;;;;;;7.28;3.80;;;;;;;;;;4926866;29;20107;-77
2023/08/11 08:54:44;;;;;;;7.75;4.00;;;;;;;;;;4925196;29;20359;-76
2023/08/11 08:57:10;;;;;;;6.95;3.97;;;;;;;;;;4926359;29;20111;-76
2023/08/11 08:59:37;;;;;;;9.60;4.40;;;;;;;;;;4926625;29;20031;-76
2023/08/11 09:02:03;;;;;;;5.90;3.97;;;;;;;;;;4926875;29;20095;-77
2023/08/11 09:04:28;;;;;;;10.05;4.20;;;;;;;;;;4927062;29;20035;-76
2023/08/11 09:06:54;;;;;;;9.02;4.10;;;;;;;;;;4926522;29;20032;-76
2023/08/11 09:09:20;;;;;;;7.80;4.00;;;;;;;;;;4926609;29;20046;-77
2023/08/11 09:11:46;;;;;;;9.27;3.75;;;;;;;;;;4918423;29;20547;-77
2023/08/11 09:14:11;;;;;;;8.20;4.22;;;;;;;;;;4915572;29;20118;-76
2023/08/11 09:16:38;;;;;;;8.65;4.00;;;;;;;;;;4915891;29;20083;-76
2023/08/11 09:19:08;;;;;;;7.50;3.92;;;;;;;;;;4911681;29;20111;-75
2023/08/11 09:21:34;;;;;;;7.57;3.72;;;;;;;;;;4907691;29;20493;-76
2023/08/11 09:23:59;;;;;;;9.27;4.13;;;;;;;;;;4907069;29;20072;-75
2023/08/11 09:26:25;;;;;;;7.15;3.83;;;;;;;;;;4907203;29;20535;-75
2023/08/11 09:28:51;;;;;;;6.78;3.83;;;;;;;;;;4914523;29;20051;-76
2023/08/11 09:31:21;;;;;;;8.45;3.90;;;;;;;;;;4915095;29;20031;-76
2023/08/11 09:33:46;;;;;;;7.35;3.75;;;;;;;;;;4914232;29;20083;-78
2023/08/11 09:36:12;;;;;;;8.10;3.90;;;;;;;;;;4916346;29;20596;-76
2023/08/11 09:38:40;;;;;;;7.40;3.72;;;;;;;;;;4915983;29;20117;-75
2023/08/11 09:41:08;;;;;;;7.10;3.70;;;;;;;;;;4915464;29;20028;-77
2023/08/11 09:43:35;;;;;;;8.32;4.00;;;;;;;;;;4915541;29;20060;-77
2023/08/11 09:46:01;;;;;;;6.63;3.80;;;;;;;;;;4915181;29;20024;-77
2023/08/11 09:48:27;;;;;;;5.72;3.60;;;;;;;;;;4902868;29;20156;-77
2023/08/11 09:50:53;;;;;;;10.98;4.20;;;;;;;;;;4915000;29;20031;-76
2023/08/11 09:53:22;;;;;;;7.40;3.90;;;;;;;;;;4915199;29;20443;-77
2023/08/11 09:55:48;;;;;;;7.22;3.72;;;;;;;;;;4915370;29;20585;-77
2023/08/11 09:58:17;;;;;;;9.35;4.03;;;;;;;;;;4915116;29;20064;-76
2023/08/11 10:00:45;;;;;;;5.40;3.60;;;;;;;;;;4913452;29;20544;-78
2023/08/11 10:03:13;;;;;;;8.50;3.50;;;;;;;;;;4915631;29;20028;-76
2023/08/11 10:05:43;;;;;;;8.23;3.47;;;;;;;;;;4915446;29;20028;-78
2023/08/11 10:08:16;;;;;;;6.13;3.80;;;;;;;;;;4915051;29;20512;-80
2023/08/11 10:10:43;;;;;;;9.98;4.10;;;;;;;;;;4914180;29;20028;-78
2023/08/11 10:13:14;;;;;;;9.57;3.90;;;;;;;;;;4915458;29;20036;-79
2023/08/11 10:15:40;;;;;;;7.55;4.40;;;;;;;;;;4914620;29;20024;-78
2023/08/11 10:18:06;;;;;;;6.45;3.70;;;;;;;;;;4914781;29;20024;-77
2023/08/11 10:20:32;;;;;;;6.05;3.30;;;;;;;;;;4914635;29;20525;-77
2023/08/11 10:22:58;;;;;;;8.05;3.70;;;;;;;;;;4913538;29;20024;-77
2023/08/11 10:25:24;;;;;;;6.93;3.80;;;;;;;;;;4914599;29;20020;-78
2023/08/11 10:27:51;;;;;;;6.78;3.42;;;;;;;;;;4914057;29;20452;-78
2023/08/11 10:30:17;;;;;;;7.15;3.88;;;;;;;;;;4914120;29;20090;-77
2023/08/11 10:32:43;;;;;;;6.65;4.50;;;;;;;;;;4914132;29;20119;-78
2023/08/11 10:35:26;;;;;;;6.32;3.67;;;;;;;;;;4914551;29;20143;-77
2023/08/11 10:37:58;;;;;;;7.13;3.75;;;;;;;;;;4914268;29;20460;-77
2023/08/11 10:40:32;;;;;;;8.70;3.40;;;;;;;;;;4914384;29;20032;-76
2023/08/11 10:42:59;;;;;;;5.90;3.60;;;;;;;;;;4914429;29;20034;-78
2023/08/11 10:45:24;;;;;;;8.93;4.10;;;;;;;;;;4913528;29;20413;-77
2023/08/11 10:47:54;;;;;;;7.22;3.63;;;;;;;;;;4914082;29;20024;-76
2023/08/11 10:50:22;;;;;;;7.95;3.20;;;;;;;;;;4914213;29;20113;-75
2023/08/11 10:53:05;;;;;;;5.05;3.20;;;;;;;;;;4914113;29;20412;-78
2023/08/11 10:55:34;;;;;;;5.90;3.20;;;;;;;;;;4914522;29;20028;-78
2023/08/11 10:58:12;;;;;;;7.55;3.40;;;;;;;;;;4914411;29;20024;-78
2023/08/11 11:00:37;;;;;;;6.68;3.33;;;;;;;;;;4913890;29;20055;-80
2023/08/11 11:03:03;;;;;;;6.70;3.28;;;;;;;;;;4914084;29;20024;-81
2023/08/11 11:05:28;;;;;;;7.35;3.30;;;;;;;;;;4913821;29;20078;-79
2023/08/11 11:07:54;;;;;;;6.03;3.42;;;;;;;;;;4913637;29;20024;-78
2023/08/11 11:10:19;;;;;;;6.97;3.20;;;;;;;;;;4914025;29;20036;-78
2023/08/11 11:12:44;;;;;;;5.18;3.10;;;;;;;;;;4912795;29;20087;-78
2023/08/11 11:15:10;;;;;;;8.13;3.13;;;;;;;;;;4913724;29;20032;-78
2023/08/11 11:17:37;;;;;;;5.57;3.10;;;;;;;;;;4913690;29;20064;-79
2023/08/11 11:20:02;;;;;;;5.35;2.90;;;;;;;;;;4913890;29;20484;-76
2023/08/11 11:22:28;;;;;;;7.50;3.10;;;;;;;;;;4913544;29;20032;-77
2023/08/11 11:24:59;;;;;;;5.55;3.03;;;;;;;;;;4913494;29;20024;-77
2023/08/11 11:27:24;;;;;;;5.22;2.97;;;;;;;;;;4913485;29;20036;-77
2023/08/11 11:29:59;;;;;;;5.68;2.70;;;;;;;;;;4913527;29;20159;-76
2023/08/11 11:32:24;;;;;;;4.95;3.20;;;;;;;;;;4913160;29;20024;-78
2023/08/11 11:34:50;;;;;;;5.55;2.85;;;;;;;;;;4913780;29;20051;-79
2023/08/11 11:37:15;;;;;;;5.25;3.15;;;;;;;;;;4913488;29;20032;-76
2023/08/11 11:39:41;;;;;;;5.10;2.80;;;;;;;;;;4913813;29;20028;-76
2023/08/11 11:42:10;;;;;;;4.93;2.90;;;;;;;;;;4911973;29;20044;-78
2023/08/11 11:44:36;;;;;;;5.47;2.78;;;;;;;;;;4913316;29;20028;-80
2023/08/11 11:47:05;;;;;;;6.00;2.75;;;;;;;;;;4913285;29;20024;-80
2023/08/11 11:49:31;;;;;;;6.65;2.78;;;;;;;;;;4912464;29;20092;-79
2023/08/11 11:52:00;;;;;;;6.40;3.00;;;;;;;;;;4913241;29;20032;-79
2023/08/11 11:54:29;;;;;;;7.40;3.25;;;;;;;;;;4913912;29;20396;-78
2023/08/11 11:56:56;;;;;;;5.55;3.10;;;;;;;;;;4913201;29;20024;-78
2023/08/11 11:59:21;;;;;;;7.07;3.30;;;;;;;;;;4913195;29;20040;-79
2023/08/11 12:01:47;;;;;;;9.25;3.10;;;;;;;;;;4913228;29;20021;-78
2023/08/11 12:04:12;;;;;;;6.05;2.97;;;;;;;;;;4913205;29;20031;-80
2023/08/11 12:06:38;;;;;;;7.32;2.92;;;;;;;;;;4912935;29;20024;-80
2023/08/11 12:09:09;;;;;;;7.45;3.20;;;;;;;;;;4913542;29;20060;-79
2023/08/11 12:11:35;;;;;;;6.05;2.90;;;;;;;;;;4913077;29;20039;-78
2023/08/11 12:14:01;;;;;;;4.90;2.72;;;;;;;;;;4913052;29;20498;-78
2023/08/11 12:16:27;;;;;;;6.75;3.17;;;;;;;;;;4913431;29;20039;-79
2023/08/11 12:18:53;;;;;;;6.50;3.15;;;;;;;;;;4913290;29;20036;-78
2023/08/11 12:21:18;;;;;;;6.82;2.95;;;;;;;;;;4913103;29;20032;-79
2023/08/11 12:23:44;;;;;;;6.05;3.10;;;;;;;;;;4913064;29;20484;-77
2023/08/11 12:26:09;;;;;;;7.38;3.00;;;;;;;;;;4912984;29;20072;-77
2023/08/11 12:28:35;;;;;;;6.25;3.40;;;;;;;;;;4913392;29;20087;-79
2023/08/11 12:31:02;;;;;;;7.68;3.30;;;;;;;;;;4912641;29;20032;-79
2023/08/11 12:33:28;;;;;;;6.18;3.20;;;;;;;;;;4915244;29;20523;-79
2023/08/11 12:35:54;;;;;;;8.20;3.60;;;;;;;;;;4916399;29;20024;-78
2023/08/11 12:38:20;;;;;;;9.38;3.80;;;;;;;;;;4916834;29;20036;-76
2023/08/11 12:40:46;;;;;;;7.47;3.60;;;;;;;;;;4916407;29;20032;-75
2023/08/11 12:43:13;;;;;;;8.25;3.53;;;;;;;;;;4915841;29;20036;-75
2023/08/11 12:45:44;;;;;;;7.03;3.80;;;;;;;;;;4915788;29;20473;-75
2023/08/11 12:48:10;;;;;;;11.63;4.60;;;;;;;;;;4916632;29;20040;-76
2023/08/11 12:50:36;;;;;;;7.32;3.53;;;;;;;;;;4916462;29;20024;-76
2023/08/11 12:53:06;;;;;;;7.28;3.35;;;;;;;;;;4916069;29;20047;-75
2023/08/11 12:55:32;;;;;;;8.20;3.90;;;;;;;;;;4916001;29;20510;-77
2023/08/11 12:58:00;;;;;;;8.35;3.50;;;;;;;;;;4915210;29;20024;-77
2023/08/11 13:00:26;;;;;;;6.53;3.50;;;;;;;;;;4915272;29;20446;-78
2023/08/11 13:02:51;;;;;;;8.48;3.83;;;;;;;;;;4914862;29;20111;-74
2023/08/11 13:05:17;;;;;;;7.78;3.58;;;;;;;;;;4916137;29;20044;-76
2023/08/11 13:07:42;;;;;;;7.72;3.50;;;;;;;;;;4916011;29;20048;-75
2023/08/11 13:10:10;;;;;;;8.02;3.40;;;;;;;;;;4916198;29;20111;-76
2023/08/11 13:12:37;;;;;;;7.25;3.30;;;;;;;;;;4915791;29;20469;-76
2023/08/11 13:15:02;;;;;;;11.75;3.50;;;;;;;;;;4915556;29;20048;-77
2023/08/11 13:17:28;;;;;;;7.95;3.47;;;;;;;;;;4915934;29;20063;-78
2023/08/11 13:19:53;;;;;;;7.85;3.40;;;;;;;;;;4916017;29;20056;-76
2023/08/11 13:22:18;;;;;;;10.40;3.50;;;;;;;;;;4915668;29;20107;-76
2023/08/11 13:24:44;;;;;;;6.28;3.38;;;;;;;;;;4915681;29;20027;-77
2023/08/11 13:27:11;;;;;;;7.00;3.20;;;;;;;;;;4915795;29;20566;-78
2023/08/11 13:29:36;;;;;;;10.23;3.65;;;;;;;;;;4915278;29;20042;-78
2023/08/11 13:32:02;;;;;;;7.32;3.63;;;;;;;;;;4915507;29;20020;-77
2023/08/11 13:34:27;;;;;;;8.90;3.80;;;;;;;;;;4915483;29;20048;-77
2023/08/11 13:36:52;;;;;;;11.43;4.50;;;;;;;;;;4914280;29;20028;-77
2023/08/11 13:39:18;;;;;;;8.23;3.80;;;;;;;;;;4915041;29;20473;-77
2023/08/11 13:41:44;;;;;;;7.28;3.63;;;;;;;;;;4915208;29;20068;-76
2023/08/11 13:44:12;;;;;;;7.75;3.38;;;;;;;;;;4914636;29;20095;-75
2023/08/11 13:46:39;;;;;;;7.57;3.60;;;;;;;;;;4915384;29;20036;-76
2023/08/11 13:49:07;;;;;;;8.38;3.72;;;;;;;;;;4915182;29;20020;-76
2023/08/11 13:51:34;;;;;;;10.10;4.10;;;;;;;;;;4915325;29;20100;-76
2023/08/11 13:54:03;;;;;;;10.13;3.70;;;;;;;;;;4915187;29;20111;-76
2023/08/11 13:56:29;;;;;;;9.02;3.67;;;;;;;;;;4914467;29;20036;-75
2023/08/11 13:58:54;;;;;;;9.50;4.25;;;;;;;;;;4914451;29;20036;-76
2023/08/11 14:01:20;;;;;;;10.15;3.75;;;;;;;;;;4914911;29;20032;-79
2023/08/11 14:03:45;;;;;;;11.77;4.07;;;;;;;;;;4910601;29;20031;-76
2023/08/11 14:06:12;;;;;;;13.70;4.00;;;;;;;;;;4908838;29;20433;-77
2023/08/11 14:08:37;;;;;;;14.88;4.00;;;;;;;;;;4914747;29;20150;-77
2023/08/11 14:11:03;;;;;;;11.65;4.28;;;;;;;;;;4914897;29;20047;-77
2023/08/11 14:13:28;;;;;;;8.27;3.90;;;;;;;;;;4915107;29;20058;-75
2023/08/11 14:15:55;;;;;;;13.13;3.72;;;;;;;;;;4914655;29;20035;-76
2023/08/11 14:18:20;;;;;;;12.75;4.28;;;;;;;;;;4914856;29;20072;-75
2023/08/11 14:20:46;;;;;;;9.73;3.92;;;;;;;;;;4914435;29;20040;-75
2023/08/11 14:23:11;;;;;;;10.00;3.95;;;;;;;;;;4913438;29;20044;-76
2023/08/11 14:25:36;;;;;;;9.60;3.85;;;;;;;;;;4914700;29;20400;-76
2023/08/11 14:28:02;;;;;;;7.32;3.47;;;;;;;;;;4914376;29;20040;-77
2023/08/11 14:30:28;;;;;;;11.27;3.70;;;;;;;;;;4914246;29;20042;-77
2023/08/11 14:32:53;;;;;;;10.05;4.50;;;;;;;;;;4914420;29;20091;-76
2023/08/11 14:35:18;;;;;;;11.00;4.65;;;;;;;;;;4914126;29;20078;-77